Time;durP1;ratioP1;P1;durP2;ratioP2;P2;SDS_P1;SDS_P2;PMS_P1;PMS_P2;Temp;Humidity;BMP_temperature;BMP_pressure;BME280_temperature;BME280_humidity;BME280_pressure;Samples;Min_cycle;Max_cycle;Signal;HPM_P1;HPM_P2
2022/10/27 00:00:41;;;;;;;13.02;6.90;;;;;;;;;;5074258;28;20035;-71
2022/10/27 00:03:09;;;;;;;11.30;7.85;;;;;;;;;;5074244;28;20070;-71
2022/10/27 00:05:35;;;;;;;11.07;7.53;;;;;;;;;;5074480;28;20099;-71
2022/10/27 00:08:01;;;;;;;14.15;7.90;;;;;;;;;;5074309;28;20024;-71
2022/10/27 00:10:27;;;;;;;12.25;7.70;;;;;;;;;;5056091;28;20048;-71
2022/10/27 00:12:53;;;;;;;10.70;7.63;;;;;;;;;;5074126;28;20022;-71
2022/10/27 00:15:19;;;;;;;15.55;8.52;;;;;;;;;;5073853;28;20025;-71
2022/10/27 00:17:45;;;;;;;12.05;7.80;;;;;;;;;;5074191;28;20044;-71
2022/10/27 00:20:12;;;;;;;11.18;7.90;;;;;;;;;;5073656;28;20024;-71
2022/10/27 00:22:38;;;;;;;12.98;7.63;;;;;;;;;;5073957;28;20067;-71
2022/10/27 00:25:04;;;;;;;9.07;6.05;;;;;;;;;;5055270;28;20033;-71
2022/10/27 00:27:30;;;;;;;10.40;6.88;;;;;;;;;;5074066;28;20021;-71
2022/10/27 00:29:56;;;;;;;10.70;6.78;;;;;;;;;;5073304;28;20082;-70
2022/10/27 00:32:22;;;;;;;9.43;7.10;;;;;;;;;;5073758;28;20016;-70
2022/10/27 00:34:48;;;;;;;19.63;11.50;;;;;;;;;;5073572;28;20104;-71
2022/10/27 00:37:14;;;;;;;14.43;9.07;;;;;;;;;;5073299;28;20031;-70
2022/10/27 00:39:40;;;;;;;13.23;6.95;;;;;;;;;;5073275;28;20024;-71
2022/10/27 00:42:06;;;;;;;8.20;6.18;;;;;;;;;;5055528;28;20016;-70
2022/10/27 00:44:37;;;;;;;9.30;7.00;;;;;;;;;;5073103;28;20070;-72
2022/10/27 00:47:09;;;;;;;11.13;6.65;;;;;;;;;;5073266;28;20044;-70
2022/10/27 00:49:44;;;;;;;10.45;6.18;;;;;;;;;;5055285;28;20037;-71
2022/10/27 00:52:15;;;;;;;9.48;6.85;;;;;;;;;;5073309;28;20021;-70
2022/10/27 00:54:42;;;;;;;11.93;6.97;;;;;;;;;;5072643;28;20025;-71
2022/10/27 00:57:09;;;;;;;10.23;6.65;;;;;;;;;;5073166;28;20067;-71
2022/10/27 00:59:36;;;;;;;9.85;6.45;;;;;;;;;;5072943;28;20391;-70
2022/10/27 01:02:03;;;;;;;9.80;6.65;;;;;;;;;;5072896;28;20020;-71
2022/10/27 01:04:42;;;;;;;11.30;6.45;;;;;;;;;;5072862;28;20033;-71
2022/10/27 01:07:08;;;;;;;8.95;7.03;;;;;;;;;;5073101;28;20028;-71
2022/10/27 01:09:34;;;;;;;9.68;6.45;;;;;;;;;;5072831;28;20056;-70
2022/10/27 01:12:00;;;;;;;9.07;6.32;;;;;;;;;;5054750;28;20031;-70
2022/10/27 01:14:27;;;;;;;13.05;6.63;;;;;;;;;;5072846;28;20035;-70
2022/10/27 01:16:59;;;;;;;8.00;6.20;;;;;;;;;;5072972;28;20024;-70
2022/10/27 01:19:25;;;;;;;10.02;6.63;;;;;;;;;;5072769;28;20044;-71
2022/10/27 01:22:00;;;;;;;13.63;6.60;;;;;;;;;;5072746;28;20017;-70
2022/10/27 01:24:26;;;;;;;8.20;6.35;;;;;;;;;;5072745;28;20024;-70
2022/10/27 01:26:58;;;;;;;9.23;6.38;;;;;;;;;;5072539;28;20463;-70
2022/10/27 01:29:24;;;;;;;;;;;;;;;;;;5055094;28;20034;-70
2022/10/27 01:31:55;;;;;;;10.93;6.15;;;;;;;;;;5072432;28;20386;-70
2022/10/27 01:34:24;;;;;;;7.55;5.80;;;;;;;;;;5054570;28;20021;-70
2022/10/27 01:36:53;;;;;;;8.30;5.97;;;;;;;;;;5072565;28;20378;-70
2022/10/27 01:39:23;;;;;;;10.30;5.60;;;;;;;;;;5072239;28;20383;-70
2022/10/27 01:41:57;;;;;;;10.15;5.75;;;;;;;;;;5072580;28;20023;-70
2022/10/27 01:44:29;;;;;;;8.18;5.80;;;;;;;;;;5072603;28;20056;-70
2022/10/27 01:46:56;;;;;;;9.50;5.93;;;;;;;;;;5053774;28;20044;-70
2022/10/27 01:49:23;;;;;;;10.32;5.80;;;;;;;;;;5072273;28;20029;-70
2022/10/27 01:51:49;;;;;;;8.77;5.70;;;;;;;;;;5072479;28;20043;-71
2022/10/27 01:54:18;;;;;;;9.07;5.80;;;;;;;;;;5072305;28;20071;-70
2022/10/27 01:57:16;;;;;;;8.07;5.65;;;;;;;;;;5072709;28;20025;-70
2022/10/27 02:00:08;;;;;;;8.88;5.85;;;;;;;;;;4990659;28;20055;-70
2022/10/27 02:02:34;;;;;;;7.68;5.15;;;;;;;;;;4987333;28;20034;-70
2022/10/27 02:05:09;;;;;;;6.82;5.07;;;;;;;;;;4990807;28;20552;-70
2022/10/27 02:07:38;;;;;;;9.30;5.68;;;;;;;;;;4992917;28;20027;-70
2022/10/27 02:10:22;;;;;;;8.10;4.78;;;;;;;;;;4994700;28;20089;-71
2022/10/27 02:12:49;;;;;;;8.13;5.00;;;;;;;;;;4995010;28;20030;-71
2022/10/27 02:15:35;;;;;;;8.52;5.35;;;;;;;;;;4994192;28;20030;-71
2022/10/27 02:18:06;;;;;;;7.88;5.43;;;;;;;;;;4994541;28;20102;-70
2022/10/27 02:20:35;;;;;;;8.70;5.35;;;;;;;;;;4994768;28;20506;-71
2022/10/27 02:23:06;;;;;;;8.80;5.40;;;;;;;;;;4978161;28;20034;-70
2022/10/27 02:25:36;;;;;;;9.75;5.50;;;;;;;;;;4994443;28;20057;-71
2022/10/27 02:28:05;;;;;;;8.97;5.17;;;;;;;;;;4994427;28;20030;-70
2022/10/27 02:30:32;;;;;;;6.82;5.30;;;;;;;;;;4994412;28;20096;-71
2022/10/27 02:32:58;;;;;;;8.35;6.07;;;;;;;;;;4994584;28;20602;-70
2022/10/27 02:35:24;;;;;;;10.88;5.93;;;;;;;;;;5040071;28;20036;-71
2022/10/27 02:37:51;;;;;;;7.32;5.50;;;;;;;;;;5075796;28;20422;-70
2022/10/27 02:40:17;;;;;;;7.07;5.20;;;;;;;;;;5076152;28;20028;-71
2022/10/27 02:42:43;;;;;;;9.10;5.45;;;;;;;;;;5075561;28;20027;-71
2022/10/27 02:45:09;;;;;;;12.48;5.78;;;;;;;;;;5075757;28;20029;-71
2022/10/27 02:47:35;;;;;;;7.95;5.03;;;;;;;;;;5075336;28;20047;-70
2022/10/27 02:50:02;;;;;;;9.05;5.85;;;;;;;;;;5075763;28;20021;-70
2022/10/27 02:52:28;;;;;;;9.98;5.90;;;;;;;;;;5075549;28;20025;-71
2022/10/27 02:54:54;;;;;;;16.42;7.22;;;;;;;;;;5075996;28;20092;-70
2022/10/27 02:57:20;;;;;;;7.07;5.10;;;;;;;;;;5075505;28;20021;-70
2022/10/27 02:59:46;;;;;;;10.52;5.95;;;;;;;;;;5075303;28;20467;-71
2022/10/27 03:02:12;;;;;;;11.93;6.57;;;;;;;;;;5075397;28;20020;-71
2022/10/27 03:04:38;;;;;;;13.38;8.48;;;;;;;;;;5075193;28;20025;-71
2022/10/27 03:07:04;;;;;;;13.38;7.05;;;;;;;;;;5075413;28;20078;-71
2022/10/27 03:09:30;;;;;;;8.23;5.82;;;;;;;;;;5075249;28;20029;-71
2022/10/27 03:11:56;;;;;;;9.50;6.25;;;;;;;;;;5075038;28;20024;-71
2022/10/27 03:14:22;;;;;;;8.45;6.45;;;;;;;;;;5075280;28;20031;-71
2022/10/27 03:16:48;;;;;;;10.20;5.97;;;;;;;;;;5075025;28;20029;-72
2022/10/27 03:19:14;;;;;;;8.95;6.20;;;;;;;;;;5040034;28;20131;-71
2022/10/27 03:21:40;;;;;;;7.47;5.80;;;;;;;;;;5057045;28;20020;-71
2022/10/27 03:24:06;;;;;;;8.65;5.90;;;;;;;;;;5075391;28;20035;-71
2022/10/27 03:26:32;;;;;;;8.05;5.80;;;;;;;;;;5074771;28;20548;-71
2022/10/27 03:28:59;;;;;;;9.32;5.38;;;;;;;;;;5074963;28;20060;-71
2022/10/27 03:31:25;;;;;;;9.93;6.30;;;;;;;;;;5074746;28;20145;-71
2022/10/27 03:33:51;;;;;;;9.20;5.57;;;;;;;;;;5074762;28;20577;-71
2022/10/27 03:36:17;;;;;;;8.38;5.50;;;;;;;;;;5074797;28;20043;-71
2022/10/27 03:38:43;;;;;;;9.73;5.80;;;;;;;;;;5074602;28;20491;-71
2022/10/27 03:41:09;;;;;;;9.80;6.32;;;;;;;;;;5056281;28;20055;-71
2022/10/27 03:43:35;;;;;;;9.00;5.25;;;;;;;;;;5074373;28;20016;-71
2022/10/27 03:46:01;;;;;;;8.93;5.53;;;;;;;;;;5074427;28;20041;-71
2022/10/27 03:48:27;;;;;;;11.48;6.20;;;;;;;;;;5074298;28;20605;-71
2022/10/27 03:50:53;;;;;;;8.27;5.10;;;;;;;;;;5074349;28;20039;-71
2022/10/27 03:53:19;;;;;;;9.02;5.90;;;;;;;;;;5074569;28;20025;-71
2022/10/27 03:55:46;;;;;;;9.93;5.22;;;;;;;;;;5074797;28;20020;-71
2022/10/27 03:58:14;;;;;;;9.52;5.32;;;;;;;;;;5074104;28;20052;-71
2022/10/27 04:00:40;;;;;;;11.73;7.20;;;;;;;;;;5056391;28;20043;-71
2022/10/27 04:03:07;;;;;;;14.18;5.72;;;;;;;;;;5056240;28;20016;-71
2022/10/27 04:05:33;;;;;;;13.52;7.35;;;;;;;;;;5055887;28;20029;-71
2022/10/27 04:07:59;;;;;;;15.88;7.57;;;;;;;;;;5074006;28;20094;-71
2022/10/27 04:10:26;;;;;;;13.45;6.53;;;;;;;;;;5074015;28;20009;-71
2022/10/27 04:12:53;;;;;;;17.30;7.03;;;;;;;;;;5073965;28;20104;-71
2022/10/27 04:15:19;;;;;;;11.63;7.95;;;;;;;;;;5073841;28;20429;-71
2022/10/27 04:17:45;;;;;;;15.88;10.30;;;;;;;;;;5074350;28;20032;-71
2022/10/27 04:20:12;;;;;;;20.15;11.63;;;;;;;;;;5073721;28;20498;-70
2022/10/27 04:22:38;;;;;;;18.10;12.18;;;;;;;;;;5073965;28;20012;-71
2022/10/27 04:25:05;;;;;;;15.13;10.65;;;;;;;;;;5073778;28;20032;-70
2022/10/27 04:27:31;;;;;;;14.45;8.63;;;;;;;;;;5073592;28;20032;-72
2022/10/27 04:29:57;;;;;;;16.98;9.27;;;;;;;;;;5072920;28;20032;-70
2022/10/27 04:32:23;;;;;;;15.35;9.65;;;;;;;;;;5073652;28;20481;-71
2022/10/27 04:34:49;;;;;;;13.30;7.95;;;;;;;;;;5073610;28;20024;-71
2022/10/27 04:37:15;;;;;;;16.60;10.30;;;;;;;;;;5055299;28;20182;-71
2022/10/27 04:39:41;;;;;;;14.45;8.98;;;;;;;;;;5073356;28;20043;-71
2022/10/27 04:42:08;;;;;;;12.95;8.15;;;;;;;;;;5073530;28;20055;-71
2022/10/27 04:44:34;;;;;;;10.90;7.85;;;;;;;;;;5054773;28;20067;-71
2022/10/27 04:47:00;;;;;;;17.70;9.50;;;;;;;;;;5073217;28;20044;-71
2022/10/27 04:49:26;;;;;;;13.10;9.75;;;;;;;;;;5054873;28;20120;-71
2022/10/27 04:51:52;;;;;;;15.43;9.05;;;;;;;;;;5073320;28;20012;-70
2022/10/27 04:54:18;;;;;;;16.08;11.07;;;;;;;;;;5073133;28;20029;-71
2022/10/27 04:56:44;;;;;;;20.70;12.02;;;;;;;;;;5073147;28;20043;-71
2022/10/27 04:59:10;;;;;;;23.35;12.55;;;;;;;;;;5073077;28;20029;-70
2022/10/27 05:01:36;;;;;;;15.05;10.25;;;;;;;;;;5072754;28;20028;-71
2022/10/27 05:04:02;;;;;;;16.50;11.02;;;;;;;;;;5072958;28;20386;-71
2022/10/27 05:06:28;;;;;;;18.75;10.23;;;;;;;;;;5072966;28;20099;-71
2022/10/27 05:08:54;;;;;;;17.20;9.43;;;;;;;;;;5072965;28;20024;-70
2022/10/27 05:11:21;;;;;;;16.05;9.70;;;;;;;;;;5072659;28;20024;-70
2022/10/27 05:13:50;;;;;;;12.75;7.57;;;;;;;;;;5072857;28;20079;-70
2022/10/27 05:16:16;;;;;;;10.73;8.75;;;;;;;;;;5072789;28;20024;-70
2022/10/27 05:18:42;;;;;;;10.23;6.50;;;;;;;;;;5072510;28;20027;-71
2022/10/27 05:21:09;;;;;;;10.98;6.30;;;;;;;;;;5072644;28;20032;-71
2022/10/27 05:23:35;;;;;;;9.32;7.47;;;;;;;;;;5072759;28;20066;-70
2022/10/27 05:26:01;;;;;;;12.20;7.15;;;;;;;;;;5072659;28;20020;-70
2022/10/27 05:28:27;;;;;;;8.45;6.32;;;;;;;;;;5072738;28;20027;-70
2022/10/27 05:30:59;;;;;;;13.50;7.78;;;;;;;;;;5072628;28;20031;-70
2022/10/27 05:33:26;;;;;;;16.65;7.70;;;;;;;;;;5054290;28;20056;-71
2022/10/27 05:35:52;;;;;;;17.60;7.75;;;;;;;;;;5072810;28;20039;-70
2022/10/27 05:38:18;;;;;;;11.32;6.80;;;;;;;;;;5072526;28;20378;-72
2022/10/27 05:40:45;;;;;;;12.27;6.93;;;;;;;;;;5072142;28;20040;-71
2022/10/27 05:43:12;;;;;;;7.90;6.22;;;;;;;;;;5054260;28;20500;-70
2022/10/27 05:45:38;;;;;;;14.00;7.10;;;;;;;;;;5072342;28;20032;-70
2022/10/27 05:48:05;;;;;;;9.75;6.53;;;;;;;;;;5072101;28;20045;-70
2022/10/27 05:50:31;;;;;;;14.07;8.20;;;;;;;;;;5072449;28;20155;-72
2022/10/27 05:52:58;;;;;;;16.55;8.88;;;;;;;;;;5072394;28;20021;-72
2022/10/27 05:55:25;;;;;;;13.60;9.60;;;;;;;;;;5072525;28;20028;-72
2022/10/27 05:58:01;;;;;;;21.10;10.93;;;;;;;;;;5072133;28;20031;-70
2022/10/27 06:00:29;;;;;;;16.67;9.80;;;;;;;;;;5053832;28;20041;-70
2022/10/27 06:02:56;;;;;;;18.50;11.80;;;;;;;;;;5054171;28;20066;-70
2022/10/27 06:05:22;;;;;;;19.55;11.85;;;;;;;;;;5054180;28;20017;-70
2022/10/27 06:07:48;;;;;;;15.57;10.60;;;;;;;;;;5053998;28;20498;-73
2022/10/27 06:10:15;;;;;;;16.02;9.80;;;;;;;;;;5072356;28;20062;-73
2022/10/27 06:12:41;;;;;;;16.25;9.73;;;;;;;;;;5071997;28;20033;-73
2022/10/27 06:15:07;;;;;;;15.55;8.98;;;;;;;;;;5054008;28;20476;-71
2022/10/27 06:17:33;;;;;;;14.73;8.15;;;;;;;;;;5072279;28;20032;-70
2022/10/27 06:19:59;;;;;;;14.10;7.38;;;;;;;;;;5071967;28;20036;-70
2022/10/27 06:22:25;;;;;;;10.82;7.35;;;;;;;;;;5072070;28;20459;-71
2022/10/27 06:24:51;;;;;;;16.65;7.10;;;;;;;;;;5054022;28;20028;-71
2022/10/27 06:27:17;;;;;;;13.93;6.90;;;;;;;;;;5072077;28;20021;-70
2022/10/27 06:29:43;;;;;;;11.80;7.25;;;;;;;;;;5071720;28;20062;-71
2022/10/27 06:32:09;;;;;;;15.20;9.13;;;;;;;;;;5071857;28;20024;-70
2022/10/27 06:34:35;;;;;;;31.98;19.95;;;;;;;;;;5072176;28;20099;-71
2022/10/27 06:37:04;;;;;;;17.33;11.25;;;;;;;;;;5054097;28;20027;-71
2022/10/27 06:39:30;;;;;;;15.27;10.13;;;;;;;;;;5054350;28;20033;-71
2022/10/27 06:41:57;;;;;;;18.40;10.85;;;;;;;;;;5071948;28;20043;-71
2022/10/27 06:44:23;;;;;;;19.05;11.63;;;;;;;;;;5071485;28;20023;-71
2022/10/27 06:46:49;;;;;;;23.92;11.82;;;;;;;;;;5071799;28;20502;-70
2022/10/27 06:49:15;;;;;;;24.48;13.32;;;;;;;;;;5071496;28;20048;-71
2022/10/27 06:51:41;;;;;;;19.52;12.23;;;;;;;;;;5071752;28;20028;-71
2022/10/27 06:54:08;;;;;;;19.63;13.40;;;;;;;;;;5074257;28;20061;-71
2022/10/27 06:56:34;;;;;;;20.55;12.80;;;;;;;;;;5057317;28;20036;-71
2022/10/27 06:59:00;;;;;;;18.98;12.10;;;;;;;;;;5057249;28;20079;-71
2022/10/27 07:01:26;;;;;;;18.67;10.70;;;;;;;;;;5057207;28;20021;-72
2022/10/27 07:03:52;;;;;;;16.58;11.30;;;;;;;;;;5075034;28;20032;-70
2022/10/27 07:06:18;;;;;;;21.92;12.57;;;;;;;;;;5075058;28;20155;-71
2022/10/27 07:08:45;;;;;;;21.60;11.95;;;;;;;;;;5057148;28;20036;-71
2022/10/27 07:11:11;;;;;;;26.70;17.73;;;;;;;;;;5075128;28;20400;-71
2022/10/27 07:13:38;;;;;;;20.45;13.98;;;;;;;;;;5056821;28;20116;-70
2022/10/27 07:16:04;;;;;;;20.63;14.02;;;;;;;;;;5075022;28;20035;-71
2022/10/27 07:18:32;;;;;;;23.25;12.98;;;;;;;;;;5074801;28;20025;-72
2022/10/27 07:20:58;;;;;;;23.67;12.70;;;;;;;;;;5074929;28;20025;-71
2022/10/27 07:23:24;;;;;;;25.83;13.95;;;;;;;;;;5074506;28;20090;-70
2022/10/27 07:25:50;;;;;;;21.33;13.95;;;;;;;;;;5074790;28;20025;-70
2022/10/27 07:28:17;;;;;;;17.73;13.07;;;;;;;;;;5056789;28;20103;-70
2022/10/27 07:30:43;;;;;;;29.92;13.50;;;;;;;;;;5074656;28;20035;-71
2022/10/27 07:33:09;;;;;;;22.48;11.18;;;;;;;;;;5074586;28;20024;-71
2022/10/27 07:35:36;;;;;;;16.55;10.35;;;;;;;;;;5074741;28;20422;-71
2022/10/27 07:38:02;;;;;;;17.13;10.68;;;;;;;;;;5074685;28;20027;-70
2022/10/27 07:40:28;;;;;;;17.73;11.30;;;;;;;;;;5074575;28;20032;-73
2022/10/27 07:42:58;;;;;;;19.48;10.00;;;;;;;;;;5074458;28;20020;-71
2022/10/27 07:45:25;;;;;;;15.10;10.17;;;;;;;;;;5074189;28;20020;-71
2022/10/27 07:47:52;;;;;;;18.67;10.63;;;;;;;;;;5074207;28;20051;-71
2022/10/27 07:50:19;;;;;;;17.63;9.80;;;;;;;;;;5074249;28;20028;-71
2022/10/27 07:52:46;;;;;;;13.65;9.40;;;;;;;;;;5074247;28;20522;-70
2022/10/27 07:55:13;;;;;;;14.98;8.27;;;;;;;;;;5074294;28;20025;-70
2022/10/27 07:57:40;;;;;;;12.38;8.68;;;;;;;;;;5056167;28;20517;-70
2022/10/27 08:00:07;;;;;;;12.77;7.60;;;;;;;;;;5074613;28;20047;-70
2022/10/27 08:02:33;;;;;;;13.23;8.18;;;;;;;;;;5074117;28;20028;-70
2022/10/27 08:04:59;;;;;;;12.25;8.45;;;;;;;;;;5072872;28;20657;-70
2022/10/27 08:07:25;;;;;;;13.38;10.38;;;;;;;;;;5074099;28;20437;-70
2022/10/27 08:09:51;;;;;;;27.38;16.15;;;;;;;;;;5073963;28;20111;-71
2022/10/27 08:12:17;;;;;;;20.50;11.05;;;;;;;;;;5056043;28;20036;-71
2022/10/27 08:14:43;;;;;;;14.85;11.70;;;;;;;;;;5073681;28;20021;-71
2022/10/27 08:17:09;;;;;;;20.08;12.15;;;;;;;;;;5074001;28;20044;-71
2022/10/27 08:19:35;;;;;;;17.27;11.20;;;;;;;;;;5073521;28;20228;-71
2022/10/27 08:22:01;;;;;;;17.55;11.15;;;;;;;;;;5073565;28;20021;-72
2022/10/27 08:24:27;;;;;;;22.00;12.50;;;;;;;;;;5073665;28;20063;-72
2022/10/27 08:26:53;;;;;;;22.98;11.90;;;;;;;;;;5055503;28;20036;-74
2022/10/27 08:29:20;;;;;;;14.02;9.00;;;;;;;;;;5073568;28;20032;-73
2022/10/27 08:31:46;;;;;;;15.27;10.20;;;;;;;;;;5073351;28;20047;-74
2022/10/27 08:34:12;;;;;;;16.13;9.68;;;;;;;;;;5055225;28;20036;-74
2022/10/27 08:36:38;;;;;;;13.05;8.90;;;;;;;;;;5073290;28;20088;-71
2022/10/27 08:39:04;;;;;;;14.98;8.13;;;;;;;;;;5073195;28;20122;-71
2022/10/27 08:41:37;;;;;;;18.02;9.38;;;;;;;;;;5055633;28;20032;-71
2022/10/27 08:44:06;;;;;;;12.05;7.88;;;;;;;;;;5072935;28;20107;-71
2022/10/27 08:46:52;;;;;;;12.68;7.05;;;;;;;;;;5072928;28;20390;-71
2022/10/27 08:49:28;;;;;;;9.65;6.88;;;;;;;;;;5073192;28;20039;-71
2022/10/27 08:51:56;;;;;;;10.02;6.68;;;;;;;;;;5073173;28;20109;-70
2022/10/27 08:54:23;;;;;;;12.20;7.22;;;;;;;;;;5073038;28;20078;-72
2022/10/27 08:56:49;;;;;;;13.98;7.90;;;;;;;;;;5073010;28;20467;-71
2022/10/27 08:59:19;;;;;;;10.77;6.75;;;;;;;;;;5072940;28;20437;-71
2022/10/27 09:02:04;;;;;;;11.32;5.72;;;;;;;;;;5055190;28;20041;-71
2022/10/27 09:04:43;;;;;;;10.32;5.90;;;;;;;;;;5072804;28;20104;-71
2022/10/27 09:07:09;;;;;;;8.40;5.90;;;;;;;;;;5073000;28;20031;-71
2022/10/27 09:09:38;;;;;;;17.48;8.52;;;;;;;;;;5072569;28;20025;-71
2022/10/27 09:12:04;;;;;;;16.65;9.02;;;;;;;;;;5072735;28;20020;-71
2022/10/27 09:14:40;;;;;;;10.43;6.82;;;;;;;;;;5072693;28;20479;-71
2022/10/27 09:17:15;;;;;;;10.65;5.75;;;;;;;;;;5072268;28;20029;-71
2022/10/27 09:19:45;;;;;;;10.05;6.38;;;;;;;;;;5072394;28;20399;-71
2022/10/27 09:22:17;;;;;;;9.00;5.70;;;;;;;;;;5072523;28;20070;-71
2022/10/27 09:24:43;;;;;;;8.02;5.47;;;;;;;;;;5072329;28;20143;-70
2022/10/27 09:27:12;;;;;;;9.38;6.53;;;;;;;;;;5072661;28;20406;-71
2022/10/27 09:29:38;;;;;;;9.75;7.13;;;;;;;;;;5054451;28;20024;-71
2022/10/27 09:32:11;;;;;;;11.30;7.10;;;;;;;;;;5054354;28;20077;-71
2022/10/27 09:34:40;;;;;;;12.93;8.75;;;;;;;;;;5072394;28;20383;-72
2022/10/27 09:37:13;;;;;;;10.90;6.75;;;;;;;;;;5071995;28;20028;-71
2022/10/27 09:39:43;;;;;;;12.38;8.35;;;;;;;;;;5058428;28;20068;-73
2022/10/27 09:42:09;;;;;;;9.07;5.72;;;;;;;;;;5072486;28;20529;-76
2022/10/27 09:44:35;;;;;;;9.30;6.38;;;;;;;;;;5072284;28;20364;-75
2022/10/27 09:47:01;;;;;;;12.65;6.88;;;;;;;;;;5072362;28;20410;-75
2022/10/27 09:49:37;;;;;;;11.32;7.47;;;;;;;;;;5072240;28;20480;-76
2022/10/27 09:52:06;;;;;;;16.83;8.27;;;;;;;;;;5072453;28;20029;-73
2022/10/27 09:54:32;;;;;;;8.00;5.93;;;;;;;;;;5072144;28;20463;-72
2022/10/27 09:57:02;;;;;;;10.35;6.28;;;;;;;;;;5072536;28;20458;-72
2022/10/27 09:59:29;;;;;;;10.33;7.30;;;;;;;;;;5072043;28;20021;-73
2022/10/27 10:01:58;;;;;;;9.85;6.97;;;;;;;;;;5072270;28;20396;-73
2022/10/27 10:04:27;;;;;;;13.82;9.48;;;;;;;;;;5072103;28;20035;-73
2022/10/27 10:07:02;;;;;;;17.90;11.98;;;;;;;;;;5058613;28;20020;-73
2022/10/27 10:09:35;;;;;;;34.20;17.92;;;;;;;;;;5072442;28;20025;-73
2022/10/27 10:12:24;;;;;;;9.45;6.68;;;;;;;;;;5058872;28;20107;-73
2022/10/27 10:14:51;;;;;;;10.10;6.32;;;;;;;;;;4990527;28;20040;-73
2022/10/27 10:17:36;;;;;;;10.25;6.95;;;;;;;;;;4990525;28;20184;-73
2022/10/27 10:20:03;;;;;;;14.55;10.48;;;;;;;;;;4990499;28;20133;-73
2022/10/27 10:22:33;;;;;;;12.45;6.25;;;;;;;;;;4990864;28;20026;-73
2022/10/27 10:25:02;;;;;;;9.48;5.82;;;;;;;;;;4990546;28;20042;-75
2022/10/27 10:27:32;;;;;;;11.57;7.57;;;;;;;;;;4990982;28;20030;-73
2022/10/27 10:30:02;;;;;;;9.43;7.63;;;;;;;;;;4994301;28;20077;-73
2022/10/27 10:32:32;;;;;;;9.43;8.43;;;;;;;;;;4994457;28;20501;-73
2022/10/27 10:34:59;;;;;;;11.15;7.90;;;;;;;;;;4994596;28;20054;-73
2022/10/27 10:37:38;;;;;;;8.18;6.45;;;;;;;;;;4994288;28;20034;-73
2022/10/27 10:40:10;;;;;;;9.10;7.22;;;;;;;;;;4994276;28;20057;-75
2022/10/27 10:42:36;;;;;;;9.43;6.25;;;;;;;;;;4994302;28;20453;-74
2022/10/27 10:45:09;;;;;;;8.43;6.55;;;;;;;;;;4994328;28;20038;-73
2022/10/27 10:47:36;;;;;;;7.97;6.10;;;;;;;;;;4993823;28;20054;-74
2022/10/27 10:50:02;;;;;;;8.27;6.05;;;;;;;;;;4994041;28;20030;-74
2022/10/27 10:52:33;;;;;;;8.73;6.88;;;;;;;;;;5057391;28;20032;-73
2022/10/27 10:54:59;;;;;;;;;;;;;;;;;;5075819;28;20020;-74
2022/10/27 10:57:41;;;;;;;14.15;7.18;;;;;;;;;;5075437;28;19988;-74
2022/10/27 11:00:14;;;;;;;10.20;7.32;;;;;;;;;;5075419;28;20105;-74
2022/10/27 11:02:40;;;;;;;10.82;6.97;;;;;;;;;;5075250;28;20020;-75
2022/10/27 11:05:14;;;;;;;10.05;6.47;;;;;;;;;;5075233;28;20021;-74
2022/10/27 11:07:40;;;;;;;9.82;6.95;;;;;;;;;;5075271;28;20021;-75
2022/10/27 11:10:12;;;;;;;11.38;6.70;;;;;;;;;;5075085;28;20027;-74
2022/10/27 11:12:41;;;;;;;12.73;8.30;;;;;;;;;;5075321;28;20028;-76
2022/10/27 11:15:23;;;;;;;10.23;7.05;;;;;;;;;;5074984;28;20025;-74
2022/10/27 11:17:51;;;;;;;11.80;7.78;;;;;;;;;;5057267;28;20041;-74
2022/10/27 11:20:21;;;;;;;11.43;7.00;;;;;;;;;;5074721;28;20042;-75
2022/10/27 11:22:49;;;;;;;9.10;7.13;;;;;;;;;;5074925;28;20024;-75
2022/10/27 11:25:17;;;;;;;9.35;6.78;;;;;;;;;;5074853;28;20036;-72
2022/10/27 11:27:48;;;;;;;10.25;6.30;;;;;;;;;;5074964;28;20020;-75
2022/10/27 11:30:22;;;;;;;9.23;6.85;;;;;;;;;;5074824;28;20450;-74
2022/10/27 11:32:54;;;;;;;10.30;6.95;;;;;;;;;;5057139;28;20530;-76
2022/10/27 11:35:30;;;;;;;16.35;14.88;;;;;;;;;;5074619;28;20082;-75
2022/10/27 11:37:56;;;;;;;8.98;6.55;;;;;;;;;;5060688;28;20024;-72
2022/10/27 11:40:41;;;;;;;10.57;6.57;;;;;;;;;;5074128;28;20090;-74
2022/10/27 11:43:13;;;;;;;11.93;6.03;;;1075.50;972.80;;;;;;5074621;28;20016;-72
2022/10/27 11:45:49;;;;;;;12.65;6.85;;;1050.50;972.80;;;;;;5074332;28;20028;-73
2022/10/27 11:48:22;;;;;;;9.50;6.63;;;1050.20;972.80;;;;;;5061323;28;20434;-73
2022/10/27 11:50:48;;;;;;;11.35;7.40;;;;;;;;;;5074345;28;20048;-74
2022/10/27 11:53:15;;;;;;;7.38;5.75;;;1075.70;921.60;;;;;;5056579;28;20070;-72
2022/10/27 11:55:58;;;;;;;12.82;7.30;;;1075.70;921.60;;;;;;5074501;28;20557;-74
2022/10/27 11:58:53;;;;;;;15.77;7.40;;;1075.70;947.20;;;;;;5060730;28;20074;-74
2022/10/27 12:01:33;;;;;;;9.20;6.90;;;1075.20;947.20;;;;;;5074035;28;20042;-73
2022/10/27 12:04:12;;;;;;;10.25;6.20;;;1050.50;947.20;;;;;;5074257;28;20039;-73
2022/10/27 12:06:47;;;;;;;9.13;5.78;;;1050.20;972.80;;;;;;5073981;28;20028;-72
2022/10/27 12:09:21;;;;;;;9.00;6.38;;;1050.00;972.80;;;;;;5073966;28;20467;-73
2022/10/27 12:12:05;;;;;;;8.80;6.00;;;1050.00;972.80;;;;;;5074026;28;20048;-77
2022/10/27 12:14:42;;;;;;;8.27;5.93;;;;;;;;;;5074142;28;20023;-75
2022/10/27 12:17:39;;;;;;;8.18;7.10;;;1075.60;921.60;;;;;;5060680;28;20153;-73
2022/10/27 12:20:06;;;;;;;10.80;6.88;;;;;;;;;;4991880;28;20046;-74
2022/10/27 12:22:35;;;;;;;8.75;6.47;;;1075.40;921.60;;;;;;4992659;28;20517;-76
2022/10/27 12:25:20;;;;;;;9.90;6.68;;;1050.50;947.20;;;;;;4992350;28;20077;-75
2022/10/27 12:27:53;;;;;;;7.65;6.55;;;1050.40;947.20;;;;;;4976002;28;20053;-73
2022/10/27 12:30:21;;;;;;;9.13;6.30;;;1050.30;947.20;;;;;;4991988;28;20117;-74
2022/10/27 12:33:12;;;;;;;9.55;6.85;;;1050.30;947.20;;;;;;4991716;28;20045;-75
2022/10/27 12:35:43;;;;;;;10.95;6.45;;;;;;;;;;4992016;28;20374;-75
2022/10/27 12:38:44;;;;;;;10.05;6.28;;;1050.50;947.20;;;;;;4975584;28;20031;-74
2022/10/27 12:41:28;;;;;;;8.27;6.10;;;1075.20;947.20;;;;;;4915195;29;20044;-75
2022/10/27 12:43:54;;;;;;;7.75;5.55;;;;;;;;;;4915231;28;20194;-76
2022/10/27 12:46:29;;;;;;;8.82;5.93;;;;;;;;;;4914760;29;20047;-73
2022/10/27 12:49:03;;;;;;;7.70;6.00;;;;;;;;;;4914875;29;20040;-76
2022/10/27 12:52:01;;;;;;;9.07;5.85;;;;;;;;;;4914196;29;20040;-74
2022/10/27 12:54:31;;;;;;;10.82;6.40;;;;;;;;;;4858672;29;20042;-73
2022/10/27 12:57:22;;;;;;;10.43;6.43;;;;;;;;;;4887221;29;20037;-73
2022/10/27 13:00:01;;;;;;;8.27;5.95;;;;;;;;;;4914679;29;20335;-73
2022/10/27 13:02:30;;;;;;;9.77;7.10;;;;;;;;;;4915102;29;20031;-74
2022/10/27 13:05:00;;;;;;;8.50;6.13;;;;;;;;;;4914910;29;20456;-73
2022/10/27 13:07:35;;;;;;;13.50;8.32;;;;;;;;;;4914940;29;20036;-74
2022/10/27 13:10:19;;;;;;;10.52;7.38;;;;;;;;;;4914463;29;20032;-73
2022/10/27 13:13:02;;;;;;;18.10;6.95;;;;;;;;;;4914618;29;20103;-73
2022/10/27 13:15:46;;;;;;;12.48;6.88;;;;;;;;;;4914431;29;20062;-75
2022/10/27 13:18:31;;;;;;;9.57;6.55;;;;;;;;;;4948860;28;20101;-74
2022/10/27 13:21:00;;;;;;;12.07;6.40;;;;;;;;;;4971842;28;20047;-73
2022/10/27 13:23:31;;;;;;;11.13;7.20;;;;;;;;;;4971737;28;20031;-73
2022/10/27 13:26:11;;;;;;;14.70;8.30;;;;;;;;;;4971834;28;20038;-73
2022/10/27 13:28:42;;;;;;;13.38;8.82;;;;;;;;;;4971718;28;20031;-74
2022/10/27 13:31:20;;;;;;;10.45;7.43;;;;;;;;;;5068146;28;20040;-76
2022/10/27 13:34:00;;;;;;;9.60;5.80;;;;;;;;;;5072378;28;20028;-73
2022/10/27 13:36:26;;;;;;;13.60;6.07;;;;;;;;;;5072228;28;20016;-75
2022/10/27 13:39:11;;;;;;;12.13;9.07;;;;;;;;;;5072398;28;20028;-75
2022/10/27 13:41:47;;;;;;;13.63;9.45;;;;;;;;;;5060460;28;20383;-73
2022/10/27 13:44:34;;;;;;;14.30;9.32;;;;;;;;;;5072348;28;20020;-72
2022/10/27 13:47:03;;;;;;;17.27;8.90;;;;;;;;;;5071990;28;20094;-73
2022/10/27 13:49:42;;;;;;;11.48;6.80;;;;;;;;;;5054445;28;20056;-73
2022/10/27 13:52:11;;;;;;;12.57;6.53;;;;;;;;;;5072211;28;20017;-75
2022/10/27 13:54:57;;;;;;;11.65;6.38;;;;;;;;;;5072293;28;20021;-75
2022/10/27 13:57:43;;;;;;;11.15;7.28;;;;;;;;;;5054383;28;20051;-73
2022/10/27 14:00:12;;;;;;;8.98;6.82;;;;;;;;;;5072081;28;20497;-74
2022/10/27 14:02:51;;;;;;;18.08;8.15;;;;;;;;;;5055729;28;20025;-73
2022/10/27 14:05:49;;;;;;;16.45;9.40;;;;;;;;;;5076359;28;20024;-73
2022/10/27 14:08:21;;;;;;;10.70;7.03;;;;;;;;;;4994998;28;20130;-73
2022/10/27 14:10:48;;;;;;;12.88;7.50;;;;;;;;;;4994497;28;20035;-72
2022/10/27 14:13:21;;;;;;;9.77;7.15;;;;;;;;;;4994490;28;20469;-72
2022/10/27 14:15:49;;;;;;;12.48;7.32;;;;;;;;;;4994836;28;20038;-72
2022/10/27 14:18:41;;;;;;;9.55;7.05;;;;;;;;;;4994591;28;20081;-72
2022/10/27 14:21:13;;;;;;;12.55;8.98;;;;;;;;;;4991031;28;20481;-74
2022/10/27 14:23:40;;;;;;;11.07;7.15;;;;;;;;;;4994430;28;20109;-72
2022/10/27 14:26:41;;;;;;;14.65;7.45;;;;;;;;;;4994707;28;20030;-73
2022/10/27 14:29:17;;;;;;;13.88;7.72;;;;;;;;;;4917865;29;20043;-72
2022/10/27 14:31:43;;;;;;;10.98;6.82;;;;;;;;;;4917674;29;20044;-76
2022/10/27 14:34:23;;;;;;;9.65;7.47;;;;;;;;;;4917509;29;20040;-72
2022/10/27 14:36:51;;;;;;;10.65;7.45;;;;;;;;;;4917309;29;20072;-73
2022/10/27 14:39:17;;;;;;;11.63;7.63;;;;;;;;;;4917338;29;20527;-75